Time;durP1;ratioP1;P1;durP2;ratioP2;P2;SDS_P1;SDS_P2;PMS_P1;PMS_P2;Temp;Humidity;BMP_temperature;BMP_pressure;BME280_temperature;BME280_humidity;BME280_pressure;Samples;Min_cycle;Max_cycle;Signal;HPM_P1;HPM_P2
2023/12/28 00:00:30;;;;;;;6.20;5.40;;;8.60;99.90;;;;;;4939836;29;20043;-76
2023/12/28 00:02:56;;;;;;;7.03;5.50;;;8.60;99.90;;;;;;4902808;29;20051;-76
2023/12/28 00:05:21;;;;;;;5.90;5.10;;;8.60;99.90;;;;;;4918940;29;20565;-76
2023/12/28 00:07:47;;;;;;;5.90;4.97;;;8.70;99.90;;;;;;4918619;29;20039;-76
2023/12/28 00:10:13;;;;;;;7.00;5.70;;;8.70;99.90;;;;;;4907734;29;20044;-76
2023/12/28 00:12:38;;;;;;;6.88;5.85;;;8.80;99.90;;;;;;4898722;29;20036;-76
2023/12/28 00:15:04;;;;;;;5.82;4.90;;;8.80;99.90;;;;;;4899534;29;20131;-76
2023/12/28 00:17:30;;;;;;;5.85;5.20;;;8.80;99.90;;;;;;4883873;29;20040;-76
2023/12/28 00:19:55;;;;;;;7.00;5.88;;;8.80;99.90;;;;;;4891424;29;20058;-76
2023/12/28 00:22:21;;;;;;;9.00;5.80;;;8.90;99.90;;;;;;4903266;29;20134;-77
2023/12/28 00:24:46;;;;;;;5.88;4.75;;;8.90;99.90;;;;;;4917904;29;20051;-76
2023/12/28 00:27:12;;;;;;;6.72;5.25;;;8.80;99.90;;;;;;4918063;29;20057;-76
2023/12/28 00:29:42;;;;;;;7.85;5.30;;;8.80;99.90;;;;;;4904903;29;20082;-76
2023/12/28 00:32:09;;;;;;;8.13;5.82;;;8.80;99.90;;;;;;4926976;29;20114;-76
2023/12/28 00:34:36;;;;;;;7.07;5.32;;;8.80;99.90;;;;;;4917757;29;20039;-76
2023/12/28 00:37:01;;;;;;;7.53;5.75;;;8.80;99.90;;;;;;4917788;29;20055;-76
2023/12/28 00:39:27;;;;;;;8.63;5.90;;;8.70;99.90;;;;;;4913715;29;20028;-76
2023/12/28 00:41:52;;;;;;;9.68;5.75;;;8.80;99.90;;;;;;4907400;29;20047;-76
2023/12/28 00:44:18;;;;;;;9.52;5.80;;;8.90;99.90;;;;;;4917895;29;20043;-76
2023/12/28 00:46:44;;;;;;;6.72;5.30;;;8.80;99.90;;;;;;4933798;29;20050;-76
2023/12/28 00:49:09;;;;;;;7.72;5.72;;;8.80;99.90;;;;;;4909683;29;20044;-76
2023/12/28 00:51:35;;;;;;;7.60;5.75;;;8.70;99.90;;;;;;4899248;29;20644;-76
2023/12/28 00:54:00;;;;;;;9.23;5.32;;;8.70;99.90;;;;;;4898775;29;20047;-76
2023/12/28 00:56:26;;;;;;;8.20;5.75;;;8.60;99.90;;;;;;4898953;29;20518;-76
2023/12/28 00:58:51;;;;;;;10.40;6.53;;;8.50;99.90;;;;;;4895576;29;20044;-76
2023/12/28 01:01:17;;;;;;;11.80;6.47;;;8.50;99.90;;;;;;4913623;29;20043;-76
2023/12/28 01:03:42;;;;;;;8.98;6.30;;;8.50;99.90;;;;;;4916698;29;20040;-76
2023/12/28 01:06:08;;;;;;;10.18;6.03;;;8.40;99.90;;;;;;4917711;29;20040;-76
2023/12/28 01:08:34;;;;;;;8.40;5.85;;;8.40;99.90;;;;;;4901983;29;20040;-76
2023/12/28 01:11:00;;;;;;;8.30;6.07;;;8.40;99.90;;;;;;4916752;29;20124;-76
2023/12/28 01:13:27;;;;;;;9.48;6.53;;;8.40;99.90;;;;;;4917296;29;20126;-76
2023/12/28 01:15:52;;;;;;;9.55;5.90;;;8.50;99.90;;;;;;4917814;29;20044;-76
2023/12/28 01:18:18;;;;;;;10.88;6.40;;;8.40;99.90;;;;;;4917724;29;20055;-76
2023/12/28 01:20:44;;;;;;;10.30;6.07;;;8.50;99.90;;;;;;4903270;29;20044;-76
2023/12/28 01:23:09;;;;;;;9.13;6.03;;;8.50;99.90;;;;;;4898499;29;20459;-76
2023/12/28 01:25:35;;;;;;;13.27;6.70;;;8.50;99.90;;;;;;4911801;29;20039;-76
2023/12/28 01:28:01;;;;;;;12.00;6.88;;;8.50;99.90;;;;;;4909216;29;20044;-76
2023/12/28 01:30:26;;;;;;;12.73;6.32;;;8.50;99.90;;;;;;4908157;29;20091;-76
2023/12/28 01:32:52;;;;;;;11.70;6.07;;;8.50;99.90;;;;;;4904145;29;20052;-76
2023/12/28 01:35:17;;;;;;;11.77;6.13;;;8.60;99.90;;;;;;4883015;29;20092;-76
2023/12/28 01:37:43;;;;;;;13.80;6.88;;;8.60;99.90;;;;;;4898884;29;20044;-76
2023/12/28 01:40:09;;;;;;;10.95;6.05;;;8.60;99.90;;;;;;4901052;29;20044;-76
2023/12/28 01:42:35;;;;;;;13.02;6.50;;;8.60;99.90;;;;;;4917395;29;20075;-76
2023/12/28 01:45:01;;;;;;;10.18;6.20;;;8.60;99.90;;;;;;4917374;29;20402;-76
2023/12/28 01:47:28;;;;;;;13.90;6.53;;;8.70;99.90;;;;;;4917531;29;20036;-76
2023/12/28 01:49:53;;;;;;;13.15;6.40;;;8.70;99.90;;;;;;4896186;29;20059;-76
2023/12/28 01:52:20;;;;;;;11.38;5.28;;;8.70;99.90;;;;;;4898398;29;20052;-75
2023/12/28 01:54:45;;;;;;;10.32;6.10;;;8.70;99.90;;;;;;4911398;29;20067;-76
2023/12/28 01:57:13;;;;;;;13.27;6.53;;;8.80;99.90;;;;;;4898353;29;20047;-76
2023/12/28 01:59:39;;;;;;;11.13;5.30;;;8.80;99.90;;;;;;4898728;29;20040;-76
2023/12/28 02:02:06;;;;;;;16.58;6.10;;;8.80;99.90;;;;;;4882830;29;20067;-76
2023/12/28 02:04:32;;;;;;;12.40;6.03;;;8.80;99.90;;;;;;4898211;29;20044;-76
2023/12/28 02:07:00;;;;;;;13.25;5.70;;;8.80;99.90;;;;;;4900950;29;20086;-77
2023/12/28 02:09:25;;;;;;;14.23;5.40;;;8.80;99.90;;;;;;4903222;29;20055;-77
2023/12/28 02:11:52;;;;;;;12.88;5.88;;;8.80;99.90;;;;;;4911450;29;20471;-76
2023/12/28 02:14:18;;;;;;;12.50;4.85;;;8.80;99.90;;;;;;4898021;29;20041;-76
2023/12/28 02:16:56;;;;;;;12.82;5.10;;;8.90;99.90;;;;;;4899379;29;20177;-76
2023/12/28 02:19:36;;;;;;;14.82;5.40;;;8.90;99.90;;;;;;4918855;29;20126;-76
2023/12/28 02:22:02;;;;;;;12.70;4.38;;;8.90;99.90;;;;;;4902574;29;20499;-76
2023/12/28 02:24:28;;;;;;;13.25;5.30;;;8.90;99.90;;;;;;4913960;29;20091;-76
2023/12/28 02:26:53;;;;;;;13.73;4.47;;;9.00;99.90;;;;;;4916936;29;20406;-76
2023/12/28 02:29:19;;;;;;;12.75;4.70;;;8.90;99.90;;;;;;4916106;29;20577;-77
2023/12/28 02:31:59;;;;;;;10.77;4.43;;;8.90;99.90;;;;;;4917082;29;20569;-77
2023/12/28 02:34:32;;;;;;;12.50;4.50;;;9.00;99.90;;;;;;4931010;29;20039;-76
2023/12/28 02:37:01;;;;;;;12.65;4.25;;;9.00;99.90;;;;;;4938139;29;20035;-76
2023/12/28 02:39:29;;;;;;;12.30;4.70;;;9.00;99.90;;;;;;4931482;29;20039;-76
2023/12/28 02:41:55;;;;;;;9.93;3.85;;;9.00;99.90;;;;;;4901502;29;20510;-76
2023/12/28 02:44:21;;;;;;;12.68;4.72;;;9.10;99.90;;;;;;4886537;29;20099;-76
2023/12/28 02:46:46;;;;;;;13.02;4.63;;;9.10;99.90;;;;;;4920652;29;20226;-76
2023/12/28 02:49:12;;;;;;;14.77;4.60;;;9.20;99.90;;;;;;4914323;29;20456;-76
2023/12/28 02:51:39;;;;;;;12.57;4.07;;;9.20;99.90;;;;;;4920290;29;20191;-76
2023/12/28 02:54:04;;;;;;;11.60;4.00;;;9.30;99.90;;;;;;4903814;29;20070;-76
2023/12/28 02:56:32;;;;;;;11.48;4.07;;;9.30;99.90;;;;;;4920204;29;20495;-76
2023/12/28 02:58:57;;;;;;;13.60;4.55;;;9.40;99.90;;;;;;4919420;29;20050;-76
2023/12/28 03:01:23;;;;;;;10.77;4.05;;;9.40;99.90;;;;;;4924007;29;20032;-76
2023/12/28 03:03:48;;;;;;;11.77;4.20;;;9.40;99.90;;;;;;4937636;29;20134;-76
2023/12/28 03:06:14;;;;;;;9.07;4.22;;;9.40;99.90;;;;;;4918099;29;20125;-76
2023/12/28 03:08:40;;;;;;;11.60;4.22;;;9.40;99.90;;;;;;4917869;29;20046;-76
2023/12/28 03:11:05;;;;;;;9.77;4.30;;;9.40;99.90;;;;;;4919509;29;20040;-76
2023/12/28 03:13:32;;;;;;;13.88;4.20;;;9.40;99.90;;;;;;4919217;29;20050;-76
2023/12/28 03:15:57;;;;;;;9.98;4.00;;;9.40;99.90;;;;;;4922097;29;20059;-76
2023/12/28 03:18:23;;;;;;;8.43;4.13;;;9.40;99.90;;;;;;4930625;29;20039;-76
2023/12/28 03:20:49;;;;;;;9.50;3.78;;;9.40;99.90;;;;;;4923493;29;20040;-76
2023/12/28 03:23:14;;;;;;;13.02;4.07;;;9.40;99.90;;;;;;4919146;29;20506;-76
2023/12/28 03:25:40;;;;;;;11.30;3.63;;;9.40;99.90;;;;;;4919439;29;20524;-76
2023/12/28 03:28:05;;;;;;;9.38;3.85;;;9.40;99.90;;;;;;4919340;29;20494;-76
2023/12/28 03:30:31;;;;;;;10.45;3.95;;;9.40;99.90;;;;;;4902063;29;20126;-76
2023/12/28 03:32:57;;;;;;;9.52;4.20;;;9.50;99.90;;;;;;4928294;29;20086;-77
2023/12/28 03:35:22;;;;;;;8.65;4.05;;;9.40;99.90;;;;;;4938403;29;20047;-76
2023/12/28 03:37:48;;;;;;;9.07;3.55;;;9.40;99.90;;;;;;4938210;29;20046;-76
2023/12/28 03:40:13;;;;;;;10.40;4.10;;;9.50;99.90;;;;;;4903133;29;20043;-76
2023/12/28 03:42:39;;;;;;;12.13;4.05;;;9.50;99.90;;;;;;4912898;29;20054;-76
2023/12/28 03:45:05;;;;;;;9.35;3.63;;;9.50;99.90;;;;;;4903176;29;20035;-76
2023/12/28 03:47:31;;;;;;;12.55;3.67;;;9.60;99.90;;;;;;4929938;29;20035;-76
2023/12/28 03:49:57;;;;;;;11.25;4.43;;;9.60;99.90;;;;;;4923964;29;20183;-76
2023/12/28 03:52:25;;;;;;;10.52;4.22;;;9.60;99.90;;;;;;4899838;29;20483;-76
2023/12/28 03:54:51;;;;;;;11.60;3.83;;;9.60;99.90;;;;;;4906218;29;20043;-76
2023/12/28 03:57:16;;;;;;;10.02;3.47;;;9.60;99.90;;;;;;4918769;29;20055;-76
2023/12/28 03:59:42;;;;;;;11.82;3.40;;;9.70;99.90;;;;;;4914555;29;20047;-76
2023/12/28 04:02:07;;;;;;;13.00;3.85;;;9.70;99.90;;;;;;4921189;29;20042;-76
2023/12/28 04:04:33;;;;;;;12.18;4.50;;;9.70;99.90;;;;;;4919570;29;20035;-76
2023/12/28 04:06:58;;;;;;;10.60;3.78;;;9.70;99.90;;;;;;4937827;29;20055;-75
2023/12/28 04:09:24;;;;;;;13.55;3.70;;;9.70;99.90;;;;;;4933153;29;20036;-76
2023/12/28 04:11:49;;;;;;;13.95;4.05;;;9.80;99.90;;;;;;4918648;29;20090;-76
2023/12/28 04:14:15;;;;;;;10.32;3.60;;;9.80;99.90;;;;;;4923329;29;20035;-76
2023/12/28 04:16:40;;;;;;;11.90;3.88;;;9.80;99.90;;;;;;4929196;29;20078;-76
2023/12/28 04:19:06;;;;;;;12.10;3.83;;;9.80;99.90;;;;;;4913351;29;20051;-76
2023/12/28 04:21:31;;;;;;;13.30;3.75;;;9.80;99.90;;;;;;4918345;29;20506;-76
2023/12/28 04:23:57;;;;;;;14.23;4.25;;;9.80;99.90;;;;;;4905031;29;20122;-76
2023/12/28 04:26:23;;;;;;;12.60;3.67;;;9.70;99.90;;;;;;4929273;29;20179;-76
2023/12/28 04:28:48;;;;;;;13.95;4.10;;;9.70;99.90;;;;;;4937218;29;20090;-76
2023/12/28 04:31:14;;;;;;;15.88;3.67;;;9.70;99.90;;;;;;4919135;29;20054;-76
2023/12/28 04:33:39;;;;;;;13.27;3.80;;;9.70;99.90;;;;;;4917942;29;20494;-76
2023/12/28 04:36:05;;;;;;;14.38;4.07;;;9.70;99.90;;;;;;4918083;29;20039;-76
2023/12/28 04:38:31;;;;;;;17.63;3.97;;;9.70;99.90;;;;;;4923672;29;20442;-76
2023/12/28 04:40:57;;;;;;;13.48;3.90;;;9.70;99.90;;;;;;4925633;29;20106;-76
2023/12/28 04:43:23;;;;;;;15.68;3.70;;;9.70;99.90;;;;;;4919323;29;20039;-76
2023/12/28 04:45:50;;;;;;;11.40;3.33;;;9.70;99.90;;;;;;4917993;29;20047;-76
2023/12/28 04:48:15;;;;;;;12.80;3.67;;;9.70;99.90;;;;;;4918261;29;20431;-76
2023/12/28 04:50:41;;;;;;;12.68;3.50;;;9.70;99.90;;;;;;4917273;29;20046;-76
2023/12/28 04:53:06;;;;;;;14.10;3.92;;;9.70;99.90;;;;;;4921034;29;20057;-76
2023/12/28 04:55:32;;;;;;;12.07;3.13;;;9.60;99.90;;;;;;4928542;29;20054;-76
2023/12/28 04:57:57;;;;;;;16.75;4.63;;;9.70;99.90;;;;;;4936623;28;20118;-76
2023/12/28 05:00:23;;;;;;;13.48;3.30;;;9.70;99.90;;;;;;4915378;29;20443;-76
2023/12/28 05:02:49;;;;;;;15.48;3.83;;;9.70;99.90;;;;;;4898961;29;20459;-76
2023/12/28 05:05:14;;;;;;;13.20;4.25;;;9.70;99.90;;;;;;4898648;29;20043;-76
2023/12/28 05:07:40;;;;;;;14.80;3.85;;;9.70;99.90;;;;;;4921606;29;20082;-76
2023/12/28 05:10:06;;;;;;;13.80;3.53;;;9.70;99.90;;;;;;4920042;29;20099;-76
2023/12/28 05:12:31;;;;;;;17.17;4.38;;;9.80;99.90;;;;;;4913994;29;20044;-76
2023/12/28 05:14:57;;;;;;;15.43;4.10;;;9.80;99.90;;;;;;4898480;29;20111;-76
2023/12/28 05:17:22;;;;;;;13.45;4.05;;;9.90;99.90;;;;;;4898721;29;20062;-75
2023/12/28 05:19:48;;;;;;;12.98;3.67;;;9.90;99.90;;;;;;4898625;29;20071;-76
2023/12/28 05:22:13;;;;;;;13.43;4.03;;;9.90;99.90;;;;;;4897234;29;20048;-76
2023/12/28 05:24:39;;;;;;;14.50;3.88;;;9.90;99.90;;;;;;4904125;29;20052;-76
2023/12/28 05:27:05;;;;;;;14.50;3.85;;;9.90;99.90;;;;;;4926387;28;20533;-76
2023/12/28 05:29:30;;;;;;;15.23;3.70;;;10.00;99.90;;;;;;4924780;29;20036;-76
2023/12/28 05:31:56;;;;;;;15.07;4.00;;;10.00;99.90;;;;;;4917400;29;20483;-76
2023/12/28 05:34:21;;;;;;;12.80;4.10;;;10.00;99.90;;;;;;4916985;29;20446;-75
2023/12/28 05:36:47;;;;;;;12.60;3.78;;;10.00;99.90;;;;;;4916706;29;20487;-76
2023/12/28 05:39:15;;;;;;;14.45;3.72;;;10.00;99.90;;;;;;4924701;29;20570;-76
2023/12/28 05:41:40;;;;;;;16.35;3.85;;;10.00;99.90;;;;;;4927854;29;20183;-76
2023/12/28 05:44:06;;;;;;;14.40;4.00;;;10.00;99.90;;;;;;4883135;29;20570;-76
2023/12/28 05:46:32;;;;;;;14.68;3.60;;;10.00;99.90;;;;;;4898676;29;20213;-76
2023/12/28 05:48:58;;;;;;;13.65;3.55;;;10.00;99.90;;;;;;4898237;29;20051;-76
2023/12/28 05:51:23;;;;;;;14.65;4.07;;;10.00;99.90;;;;;;4888797;29;20047;-76
2023/12/28 05:53:49;;;;;;;18.50;4.53;;;10.00;99.90;;;;;;4904436;29;20049;-76
2023/12/28 05:56:14;;;;;;;13.82;3.50;;;10.00;99.90;;;;;;4895158;29;20055;-75
2023/12/28 05:58:40;;;;;;;17.33;4.38;;;10.00;99.90;;;;;;4897296;29;20048;-75
2023/12/28 06:01:06;;;;;;;16.85;4.10;;;10.00;99.90;;;;;;4897161;29;20044;-76
2023/12/28 06:03:32;;;;;;;15.02;3.40;;;10.10;99.90;;;;;;4911197;29;20553;-75
2023/12/28 06:05:57;;;;;;;16.02;4.35;;;10.00;99.90;;;;;;4928420;29;20043;-76
2023/12/28 06:08:23;;;;;;;15.38;3.60;;;10.00;99.90;;;;;;4936194;29;20061;-76
2023/12/28 06:10:48;;;;;;;14.93;3.85;;;10.00;99.90;;;;;;4920865;29;20043;-76
2023/12/28 06:13:14;;;;;;;15.70;4.63;;;10.00;99.90;;;;;;4922399;29;20135;-76
2023/12/28 06:15:40;;;;;;;17.25;4.00;;;10.00;99.90;;;;;;4911908;29;20027;-76
2023/12/28 06:18:06;;;;;;;13.52;3.53;;;10.00;99.90;;;;;;4934565;29;20107;-76
2023/12/28 06:20:32;;;;;;;17.60;4.40;;;10.00;99.90;;;;;;4925099;29;20078;-76
2023/12/28 06:22:57;;;;;;;14.60;3.58;;;10.00;99.90;;;;;;4926066;29;20127;-76
2023/12/28 06:25:23;;;;;;;15.48;4.18;;;10.00;99.90;;;;;;4926360;29;20403;-76
2023/12/28 06:27:48;;;;;;;15.30;3.60;;;10.00;99.90;;;;;;4931429;29;20043;-75
2023/12/28 06:30:14;;;;;;;14.45;3.70;;;10.10;99.90;;;;;;4939448;29;20047;-76
2023/12/28 06:32:40;;;;;;;18.38;4.35;;;10.00;99.90;;;;;;4927450;29;20066;-76
2023/12/28 06:35:06;;;;;;;13.98;3.80;;;10.10;99.90;;;;;;4935783;29;20043;-76
2023/12/28 06:37:31;;;;;;;16.17;3.95;;;10.10;99.90;;;;;;4923378;29;20043;-76
2023/12/28 06:39:57;;;;;;;16.30;4.32;;;10.10;99.90;;;;;;4937219;29;20046;-76
2023/12/28 06:42:22;;;;;;;18.20;4.20;;;10.10;99.90;;;;;;4921519;29;20040;-76
2023/12/28 06:44:48;;;;;;;15.95;4.22;;;10.20;99.90;;;;;;4913455;29;20043;-76
2023/12/28 06:47:14;;;;;;;15.63;3.95;;;10.20;99.90;;;;;;4904088;29;20082;-76
2023/12/28 06:49:39;;;;;;;17.40;3.78;;;10.10;99.90;;;;;;4885604;29;20048;-76
2023/12/28 06:52:05;;;;;;;13.88;3.67;;;10.20;99.90;;;;;;4900932;29;20051;-76
2023/12/28 06:54:30;;;;;;;16.48;3.90;;;10.20;99.90;;;;;;4914288;29;20046;-76
2023/12/28 06:56:56;;;;;;;18.17;4.93;;;10.30;99.90;;;;;;4912914;29;20086;-76
2023/12/28 06:59:21;;;;;;;13.95;3.80;;;10.30;99.90;;;;;;4938735;29;20098;-76
2023/12/28 07:01:48;;;;;;;16.73;3.80;;;10.30;99.90;;;;;;4929210;29;20043;-76
2023/12/28 07:04:14;;;;;;;17.38;4.13;;;10.30;99.90;;;;;;4910288;29;20044;-76
2023/12/28 07:06:39;;;;;;;17.90;4.28;;;10.30;99.90;;;;;;4900904;29;20100;-76
2023/12/28 07:09:05;;;;;;;18.52;4.63;;;10.30;99.90;;;;;;4900977;29;20457;-76
2023/12/28 07:11:31;;;;;;;19.75;4.60;;;10.30;99.90;;;;;;4913891;29;20135;-76
2023/12/28 07:13:56;;;;;;;15.88;3.70;;;10.30;99.90;;;;;;4920352;29;20040;-76
2023/12/28 07:16:22;;;;;;;17.25;4.03;;;10.30;99.90;;;;;;4902545;29;20046;-76
2023/12/28 07:18:47;;;;;;;20.10;5.05;;;10.30;99.90;;;;;;4905356;29;20506;-76
2023/12/28 07:21:13;;;;;;;18.45;4.35;;;10.30;99.90;;;;;;4903812;29;20086;-76
2023/12/28 07:23:39;;;;;;;19.33;4.82;;;10.30;99.90;;;;;;4926270;29;20039;-76
2023/12/28 07:26:05;;;;;;;16.45;4.20;;;10.20;99.90;;;;;;4892160;29;20139;-76
2023/12/28 07:28:31;;;;;;;15.07;4.22;;;10.20;99.90;;;;;;4902952;29;20054;-75
2023/12/28 07:30:56;;;;;;;20.40;5.60;;;10.30;99.90;;;;;;4917855;29;20039;-75
2023/12/28 07:33:22;;;;;;;17.52;4.60;;;10.30;99.90;;;;;;4918620;29;20418;-77
2023/12/28 07:35:48;;;;;;;19.75;5.15;;;10.20;99.90;;;;;;4910016;29;20047;-80
2023/12/28 07:38:13;;;;;;;17.58;4.38;;;10.20;99.90;;;;;;4884740;29;20534;-79
2023/12/28 07:40:39;;;;;;;20.95;5.32;;;10.30;99.90;;;;;;4912195;29;20163;-80
2023/12/28 07:43:05;;;;;;;18.52;5.22;;;10.30;99.90;;;;;;4922482;29;20159;-79
2023/12/28 07:45:31;;;;;;;20.00;5.15;;;10.30;99.90;;;;;;4919018;29;20045;-79
2023/12/28 07:47:59;;;;;;;16.80;4.72;;;10.20;99.90;;;;;;4929972;29;20570;-79
2023/12/28 07:50:24;;;;;;;20.75;5.18;;;10.20;99.90;;;;;;4915775;29;20403;-79
2023/12/28 07:52:50;;;;;;;17.48;4.47;;;10.20;99.90;;;;;;4915321;29;20044;-79
2023/12/28 07:55:16;;;;;;;18.65;4.60;;;10.20;99.90;;;;;;4915553;29;20059;-79
2023/12/28 07:57:43;;;;;;;18.83;5.13;;;10.20;99.90;;;;;;4917674;29;20044;-78
2023/12/28 08:00:09;;;;;;;21.50;5.47;;;10.20;99.90;;;;;;4919347;29;20506;-79
2023/12/28 08:02:34;;;;;;;20.77;5.35;;;10.20;99.90;;;;;;4911326;29;20040;-79
2023/12/28 08:05:00;;;;;;;20.35;4.55;;;10.20;99.90;;;;;;4883947;29;20115;-79
2023/12/28 08:07:25;;;;;;;23.40;5.93;;;10.20;99.90;;;;;;4922595;29;20138;-78
2023/12/28 08:09:51;;;;;;;22.45;5.50;;;10.30;99.90;;;;;;4913827;29;20069;-81
2023/12/28 08:12:17;;;;;;;16.70;4.57;;;10.20;99.90;;;;;;4926178;29;20418;-79
2023/12/28 08:14:43;;;;;;;19.48;5.05;;;10.30;99.90;;;;;;4912084;29;20059;-78
2023/12/28 08:17:09;;;;;;;18.83;4.68;;;10.30;99.90;;;;;;4922774;28;20047;-78
2023/12/28 08:19:35;;;;;;;21.48;5.30;;;10.30;99.90;;;;;;4921694;29;20040;-79
2023/12/28 08:22:00;;;;;;;22.77;5.25;;;10.30;99.90;;;;;;4918532;29;20046;-79
2023/12/28 08:24:26;;;;;;;19.63;4.75;;;10.30;99.90;;;;;;4925497;29;20394;-79
2023/12/28 08:26:52;;;;;;;23.90;5.28;;;10.20;99.90;;;;;;4914471;29;20043;-79
2023/12/28 08:29:21;;;;;;;21.08;4.80;;;10.20;99.90;;;;;;4922022;29;20076;-78
2023/12/28 08:31:46;;;;;;;22.33;5.00;;;10.20;99.90;;;;;;4928588;29;20079;-79
2023/12/28 08:34:12;;;;;;;24.08;5.55;;;10.20;99.90;;;;;;4924403;29;20086;-79
2023/12/28 08:36:37;;;;;;;27.30;5.95;;;10.20;99.90;;;;;;4934699;29;20073;-79
2023/12/28 08:39:03;;;;;;;24.30;5.78;;;10.20;99.90;;;;;;4937150;29;20043;-79
2023/12/28 08:41:29;;;;;;;23.85;5.60;;;10.20;99.90;;;;;;4930544;29;20487;-79
2023/12/28 08:43:55;;;;;;;21.38;5.00;;;10.20;99.90;;;;;;4932922;29;20039;-79
2023/12/28 08:46:21;;;;;;;18.15;5.35;;;10.20;99.90;;;;;;4928558;29;20050;-79
2023/12/28 08:48:47;;;;;;;27.27;5.93;;;10.20;99.90;;;;;;4929077;29;20569;-79
2023/12/28 08:51:14;;;;;;;24.65;6.30;;;10.20;99.90;;;;;;4937104;29;20043;-79
2023/12/28 08:53:40;;;;;;;21.55;4.95;;;10.30;99.90;;;;;;4936757;29;20046;-79
2023/12/28 08:56:20;;;;;;;26.42;5.78;;;10.20;99.90;;;;;;4915156;29;20537;-79
2023/12/28 08:58:50;;;;;;;19.23;5.03;;;10.30;99.90;;;;;;4927128;29;20497;-78
2023/12/28 09:01:25;;;;;;;26.30;5.80;;;10.30;99.90;;;;;;4921208;29;20093;-79
2023/12/28 09:03:51;;;;;;;20.70;5.72;;;10.30;99.90;;;;;;4929158;29;20417;-78
2023/12/28 09:06:17;;;;;;;24.33;5.68;;;10.40;99.90;;;;;;4900967;29;20036;-80
2023/12/28 09:08:44;;;;;;;23.23;5.30;;;10.40;99.90;;;;;;4908674;29;20491;-79
2023/12/28 09:11:13;;;;;;;21.58;5.35;;;10.40;99.90;;;;;;4909534;29;20408;-80
2023/12/28 09:13:39;;;;;;;22.90;5.57;;;10.50;99.90;;;;;;4907393;29;20036;-82
2023/12/28 09:16:11;;;;;;;20.80;4.93;;;10.50;99.90;;;;;;4889382;29;20396;-80
2023/12/28 09:18:37;;;;;;;19.65;4.72;;;10.50;99.90;;;;;;4911164;29;20091;-80
2023/12/28 09:21:04;;;;;;;20.23;5.30;;;10.50;99.90;;;;;;4925116;29;20044;-80
2023/12/28 09:23:31;;;;;;;17.20;5.25;;;10.50;99.90;;;;;;4905223;29;20094;-80
2023/12/28 09:25:57;;;;;;;23.85;4.93;;;10.50;99.90;;;;;;4916840;29;20043;-79
2023/12/28 09:28:23;;;;;;;25.08;6.10;;;10.50;99.90;;;;;;4919439;29;20040;-80
2023/12/28 09:30:49;;;;;;;23.83;4.90;;;10.60;99.90;;;;;;4907316;29;20258;-83
2023/12/28 09:33:16;;;;;;;24.65;5.38;;;10.50;99.90;;;;;;4901860;29;20529;-82
2023/12/28 09:35:41;;;;;;;21.55;5.20;;;10.60;99.90;;;;;;4923744;29;20039;-82
2023/12/28 09:38:07;;;;;;;21.92;5.40;;;10.60;99.90;;;;;;4887223;29;20180;-79
2023/12/28 09:40:33;;;;;;;21.35;5.30;;;10.60;99.90;;;;;;4913149;29;20435;-81
2023/12/28 09:43:12;;;;;;;20.08;4.78;;;10.60;99.90;;;;;;4909319;29;20402;-81
2023/12/28 09:45:37;;;;;;;23.77;5.05;;;10.60;99.90;;;;;;4910912;29;20452;-81
2023/12/28 09:48:04;;;;;;;25.13;6.20;;;10.60;99.90;;;;;;4933361;29;20126;-81
2023/12/28 09:50:30;;;;;;;23.25;5.28;;;10.60;99.90;;;;;;4940567;29;20061;-81
2023/12/28 09:52:56;;;;;;;21.27;5.00;;;10.60;99.90;;;;;;4924309;29;20410;-82
2023/12/28 09:55:22;;;;;;;20.98;5.15;;;10.60;99.90;;;;;;4940152;29;20564;-81
2023/12/28 09:57:48;;;;;;;22.55;5.47;;;10.60;99.90;;;;;;4923463;29;20074;-83
2023/12/28 10:00:14;;;;;;;23.38;5.30;;;10.60;99.90;;;;;;4915863;29;20090;-81
2023/12/28 10:02:43;;;;;;;20.35;4.93;;;10.70;99.90;;;;;;4914028;29;20043;-80
2023/12/28 10:05:12;;;;;;;20.10;5.10;;;10.60;99.90;;;;;;4933402;29;20417;-81
2023/12/28 10:07:45;;;;;;;20.50;5.15;;;10.70;99.90;;;;;;4940018;29;20042;-81
2023/12/28 10:10:11;;;;;;;18.30;4.80;;;10.70;99.90;;;;;;4940289;29;20090;-81
2023/12/28 10:12:37;;;;;;;20.67;5.00;;;10.70;99.90;;;;;;4940155;29;20481;-81
2023/12/28 10:15:05;;;;;;;19.33;4.60;;;10.70;99.90;;;;;;4913105;29;20075;-81
2023/12/28 10:17:34;;;;;;;23.70;5.07;;;10.70;99.90;;;;;;4936537;29;20470;-81
2023/12/28 10:20:04;;;;;;;20.02;5.70;;;10.70;99.90;;;;;;4939759;29;20039;-81
2023/12/28 10:22:32;;;;;;;19.98;5.28;;;10.70;99.90;;;;;;4939887;29;20051;-81
2023/12/28 10:25:00;;;;;;;24.17;5.45;;;10.70;99.90;;;;;;4939563;29;20042;-81
2023/12/28 10:27:27;;;;;;;20.98;5.22;;;10.70;99.90;;;;;;4916023;29;20075;-81
2023/12/28 10:29:56;;;;;;;18.83;4.47;;;10.70;99.90;;;;;;4910754;29;20040;-80
2023/12/28 10:32:24;;;;;;;23.33;5.25;;;10.70;99.90;;;;;;4926663;29;20039;-80
2023/12/28 10:34:53;;;;;;;21.50;5.22;;;10.70;99.90;;;;;;4939252;29;20051;-81
2023/12/28 10:37:20;;;;;;;19.75;5.50;;;10.70;99.90;;;;;;4938275;28;20043;-81
2023/12/28 10:39:51;;;;;;;15.80;4.65;;;10.70;99.90;;;;;;4924399;29;20036;-81
2023/12/28 10:42:27;;;;;;;20.05;5.50;;;10.70;99.90;;;;;;4905641;29;20070;-80
2023/12/28 10:44:58;;;;;;;19.65;5.10;;;10.70;99.90;;;;;;4917401;29;20070;-82
2023/12/28 10:47:27;;;;;;;17.48;4.65;;;10.70;99.90;;;;;;4895568;29;20036;-80
2023/12/28 10:49:55;;;;;;;23.80;5.03;;;10.70;99.90;;;;;;4901267;29;20173;-80
2023/12/28 10:52:26;;;;;;;20.05;4.85;;;10.70;99.90;;;;;;4902422;29;20044;-79
2023/12/28 10:55:03;;;;;;;17.70;4.65;;;10.70;99.90;;;;;;4914281;29;20044;-80
2023/12/28 10:57:44;;;;;;;22.67;5.22;;;10.70;99.90;;;;;;4923342;29;20568;-80
2023/12/28 11:00:13;;;;;;;19.67;4.78;;;10.60;99.90;;;;;;4925595;29;20074;-80
2023/12/28 11:02:44;;;;;;;19.88;5.15;;;10.70;99.90;;;;;;4921287;29;20402;-79
2023/12/28 11:05:12;;;;;;;21.40;4.57;;;10.70;99.90;;;;;;4920673;29;20114;-80
2023/12/28 11:07:39;;;;;;;17.08;5.07;;;10.80;99.90;;;;;;4928397;29;20043;-81
2023/12/28 11:10:06;;;;;;;21.10;5.35;;;10.80;99.90;;;;;;4927808;29;20047;-80
2023/12/28 11:12:33;;;;;;;21.05;4.78;;;10.80;99.90;;;;;;4919889;29;20055;-80
2023/12/28 11:15:00;;;;;;;20.65;4.75;;;10.80;99.90;;;;;;4926574;29;20301;-81
2023/12/28 11:17:27;;;;;;;21.90;5.40;;;10.80;99.90;;;;;;4934630;28;20062;-78
2023/12/28 11:19:54;;;;;;;22.70;4.70;;;10.90;99.90;;;;;;4923074;29;20055;-78
2023/12/28 11:22:22;;;;;;;23.17;5.38;;;10.90;99.90;;;;;;4927197;29;20047;-79
2023/12/28 11:24:47;;;;;;;16.02;4.00;;;10.90;99.90;;;;;;4919819;29;20511;-78
2023/12/28 11:27:13;;;;;;;19.45;4.90;;;10.90;99.90;;;;;;4919964;29;20043;-78
2023/12/28 11:29:40;;;;;;;18.13;4.90;;;10.90;99.90;;;;;;4928028;29;20032;-78
2023/12/28 11:32:08;;;;;;;21.35;5.03;;;10.80;99.90;;;;;;4938740;29;20181;-79
2023/12/28 11:34:34;;;;;;;23.15;5.43;;;10.80;99.90;;;;;;4938329;29;20046;-79
2023/12/28 11:37:18;;;;;;;18.20;4.40;;;10.90;99.90;;;;;;4929094;29;20587;-79
2023/12/28 11:39:44;;;;;;;18.55;5.15;;;10.90;99.90;;;;;;4938439;29;20484;-79
2023/12/28 11:42:11;;;;;;;19.48;4.75;;;10.90;99.90;;;;;;4940747;29;20035;-79
2023/12/28 11:44:46;;;;;;;23.92;5.22;;;10.80;99.90;;;;;;4938441;29;20039;-80
2023/12/28 11:47:16;;;;;;;21.70;4.97;;;10.80;99.90;;;;;;4927210;29;20328;-80
2023/12/28 11:49:45;;;;;;;19.15;4.93;;;10.90;99.90;;;;;;4936525;29;20047;-80
2023/12/28 11:52:23;;;;;;;22.27;5.22;;;10.90;99.90;;;;;;4918021;29;20071;-79
2023/12/28 11:54:50;;;;;;;19.55;4.88;;;10.90;99.90;;;;;;4909771;29;20051;-80
2023/12/28 11:57:16;;;;;;;21.70;5.32;;;10.90;99.90;;;;;;4923704;29;20044;-80
2023/12/28 11:59:41;;;;;;;19.63;4.90;;;10.90;99.90;;;;;;4918629;29;20043;-80
2023/12/28 12:02:08;;;;;;;21.15;5.45;;;10.90;99.90;;;;;;4920724;29;20031;-80
2023/12/28 12:04:34;;;;;;;21.70;5.40;;;10.90;99.90;;;;;;4930919;29;20493;-80
2023/12/28 12:07:03;;;;;;;22.27;6.03;;;10.90;99.90;;;;;;4899893;29;20035;-81
2023/12/28 12:09:32;;;;;;;21.05;5.63;;;10.90;99.90;;;;;;4921279;29;20171;-79
2023/12/28 12:11:58;;;;;;;24.15;5.50;;;10.90;99.90;;;;;;4922378;29;20114;-79
2023/12/28 12:14:23;;;;;;;22.35;5.13;;;10.90;99.90;;;;;;4919679;29;20172;-79
2023/12/28 12:16:49;;;;;;;22.05;5.68;;;10.90;99.90;;;;;;4919598;29;20395;-80
2023/12/28 12:19:15;;;;;;;21.38;5.47;;;10.90;99.90;;;;;;4915044;29;20138;-79
2023/12/28 12:21:41;;;;;;;23.52;4.95;;;10.90;99.90;;;;;;4918618;29;20042;-79
2023/12/28 12:24:07;;;;;;;26.40;5.53;;;10.90;99.90;;;;;;4898732;29;20488;-80
2023/12/28 12:26:33;;;;;;;21.90;5.15;;;10.90;99.90;;;;;;4926585;29;20486;-79
2023/12/28 12:28:58;;;;;;;25.42;6.00;;;10.90;99.90;;;;;;4889889;29;20044;-80
2023/12/28 12:31:26;;;;;;;19.35;5.15;;;10.90;99.90;;;;;;4884264;29;20040;-80
2023/12/28 12:33:52;;;;;;;21.20;5.45;;;10.90;99.90;;;;;;4899213;29;20218;-80
2023/12/28 12:36:17;;;;;;;29.70;5.93;;;10.90;99.90;;;;;;4906421;29;20087;-77
2023/12/28 12:38:43;;;;;;;22.05;5.38;;;10.90;99.90;;;;;;4914779;29;20667;-78